KMFR/MFR METAR and TAF weather

Enter ICAO airport designator
Station Type Date Time Source
KMFR METAR 2020/12/06 00:53 UTC NOAA

KMFR 060053Z 00000KT 10SM BKN120 09/01 A3011 RMK AO2 SLP202 T00890011


Station Type Date Time Source
KMFR Decoded METAR 2020/12/06 00:53 UTC NOAA

ROGUE VALLEY INTERNATIONAL AIRPORT, OR, United States (KMFR) 42-23N 122-53W 396M
Dec 05, 2020 - 07:53 PM EST / 2020.12.06 0053 UTC
Wind: Calm:0
Visibility: 10 mile(s):0
Sky conditions: mostly cloudy
Temperature: 48.0 F (8.9 C)
Dew Point: 34.0 F (1.1 C)
Relative Humidity: 58%
Pressure (altimeter): 30.11 in. Hg (1019 hPa)
ob: KMFR 060053Z 00000KT 10SM BKN120 09/01 A3011 RMK AO2 SLP202 T00890011
cycle: 1

Station Type Date Time Source
KMFR TAF 2020/12/05 18:48 UTC NOAA

TAF KMFR 051744Z 0518/0618 12005KT P6SM SKC
FM052100 13010KT P6SM SCT050 BKN100
FM060300 VRB03KT P6SM -RA BKN030 OVC060
FM060800 VRB05KT 4SM BR BKN015 OVC030
FM061500 VRB03KT 1/4SM FG OVC003

Example: see airport list